Tim Quigg — WDB6570 — position and weather

sailwx.info

Track history (hours):
 
Tides and Currents Weather Stations Pressure Air Temp Water Temp Dewpoint Dewpoint Depression Visibility Wind Speed Wind Dir Waves Ship Positions

Tim Quigg

Owner: Harley Marine Services, Inc, Seattle, WA. More information available from US FCC via Universal Licensing System and Coast Guard Vessel Documentation Center.

Last reported at 2015-Mar-31 01:34 UTC. Time now 2015-Mar-31 02:05 UTC.
Position N 33°46' W 118°17'.

; draft 7.5 m.

Type: Tug. MMSI: 366926740.

Date/timePositionNaut miles runAvg speedWind from/ knotsBaromVisibWave heightAir tempDewpointWater temp
2015-Mar-31 01:34N 33°46' W 118°17'2 1.7
2015-Mar-31 00:34N 33°44' W 118°17'4 4.0
2015-Mar-30 23:33N 33°47' W 118°13'1 0.6
2015-Mar-30 22:33N 33°46' W 118°13'0 0.0
2015-Mar-30 21:33N 33°46' W 118°13'3 2.8
2015-Mar-30 20:33N 33°44' W 118°12'2 1.6
2015-Mar-30 19:33N 33°45' W 118°11'0 0.0
2015-Mar-30 18:33N 33°45' W 118°11'4 4.0
2015-Mar-30 17:34N 33°44' W 118°16'1 1.2
2015-Mar-30 16:33N 33°43' W 118°15'4 3.6
2015-Mar-30 15:33N 33°44' W 118°11'2 2.3
2015-Mar-30 14:33N 33°45' W 118°13'1 0.7
2015-Mar-30 13:33N 33°45' W 118°14'3 3.0
2015-Mar-30 12:31N 33°44' W 118°11'4 4.1
2015-Mar-30 11:33N 33°44' W 118°16'0 0.0
2015-Mar-30 10:34N 33°44' W 118°16'0 0.0
2015-Mar-30 09:30N 33°44' W 118°16'0 0.0
2015-Mar-30 08:33N 33°44' W 118°16'3 3.4
2015-Mar-30 07:34N 33°46' W 118°13'0 0.1
2015-Mar-30 06:33N 33°46' W 118°13'4 4.0
2015-Mar-30 05:34N 33°43' W 118°15'0 0.3
2015-Mar-30 04:33N 33°43' W 118°15'1 1.2
2015-Mar-30 03:33N 33°44' W 118°16'1 0.6
2015-Mar-30 02:33N 33°44' W 118°15'2 2.2
2015-Mar-30 01:34N 33°44' W 118°12'3 2.7
2015-Mar-30 00:33N 33°44' W 118°16'0 0.0
2015-Mar-29 23:33N 33°44' W 118°16'0 0.0
2015-Mar-29 22:33N 33°44' W 118°16'0 0.0
2015-Mar-29 21:33N 33°44' W 118°16'1 1.0
2015-Mar-29 20:34N 33°45' W 118°16'1 1.4
2015-Mar-29 19:33N 33°46' W 118°15'2 2.0
2015-Mar-29 18:33N 33°44' W 118°16'0 0.5
2015-Mar-29 17:33N 33°44' W 118°16'1 0.5
2015-Mar-29 16:33N 33°44' W 118°16'1 0.7
2015-Mar-29 15:33N 33°44' W 118°17'3 3.2
2015-Mar-29 14:33N 33°46' W 118°13'2 1.9
2015-Mar-29 13:33N 33°44' W 118°11'1 0.6
2015-Mar-29 12:09N 33°44' W 118°11'0 0.6
2015-Mar-29 11:33N 33°44' W 118°11'0 0.4
2015-Mar-29 10:34N 33°44' W 118°11'4 3.9
2015-Mar-29 09:33N 33°44' W 118°16'0 0.4
2015-Mar-29 08:33N 33°43' W 118°16'2 2.2
2015-Mar-29 07:33N 33°45' W 118°17'1 0.6
2015-Mar-29 06:34N 33°45' W 118°16'3 2.6
2015-Mar-29 05:31N 33°44' W 118°13'2 2.1
2015-Mar-29 04:33N 33°44' W 118°16'1 0.8
2015-Mar-29 03:33N 33°43' W 118°16'4 3.3
2015-Mar-29 02:30N 33°45' W 118°12'0 0.0
2015-Mar-29 01:33N 33°45' W 118°12'0 0.0
2015-Mar-29 00:33N 33°45' W 118°12'2 1.7
2015-Mar-28 23:33N 33°44' W 118°11'1 1.0
2015-Mar-28 22:33N 33°44' W 118°12'1 1.4
2015-Mar-28 21:33N 33°45' W 118°11'5 4.6
2015-Mar-28 20:33N 33°44' W 118°16'2 2.4
2015-Mar-28 19:33N 33°46' W 118°16'1 1.4
2015-Mar-28 18:34N 33°45' W 118°17'1 1.0
2015-Mar-28 17:33N 33°45' W 118°16'2 2.2
2015-Mar-28 16:33N 33°43' W 118°16'0 0.2
2015-Mar-28 15:33N 33°43' W 118°16'2 1.7
2015-Mar-28 14:33N 33°45' W 118°16'3 2.7
2015-Mar-28 13:33N 33°43' W 118°14'2 2.1
2015-Mar-28 12:33N 33°45' W 118°14'1 0.9
2015-Mar-28 11:20N 33°46' W 118°13'0 0.0
2015-Mar-28 10:33N 33°46' W 118°13'0 0.4
2015-Mar-28 09:33N 33°46' W 118°13'1 1.4
2015-Mar-28 08:33N 33°46' W 118°15'0 0.0
2015-Mar-28 07:34N 33°46' W 118°15'3 3.0
2015-Mar-28 06:33N 33°43' W 118°15'0 0.4
2015-Mar-28 05:33N 33°43' W 118°15'1 1.2
2015-Mar-28 04:33N 33°44' W 118°16'0 0.0
2015-Mar-28 03:33N 33°44' W 118°16'0 0.0
2015-Mar-28 02:33N 33°44' W 118°16'1 1.0
2015-Mar-28 01:33N 33°45' W 118°17'4 3.6
2015-Mar-28 00:33N 33°46' W 118°13'2 2.0
2015-Mar-27 23:33N 33°45' W 118°13'1 0.9
2015-Mar-27 22:33N 33°44' W 118°12'1 1.1
2015-Mar-27 21:33N 33°45' W 118°13'1 1.4
2015-Mar-27 20:33N 33°46' W 118°13'3 3.2
2015-Mar-27 19:33N 33°44' W 118°16'0 0.0
2015-Mar-27 18:33N 33°44' W 118°16'0 0.0
2015-Mar-27 17:34N 33°44' W 118°16'0 0.0
2015-Mar-27 16:33N 33°44' W 118°16'2 1.6
2015-Mar-27 15:33N 33°43' W 118°14'1 1.5
2015-Mar-27 14:33N 33°44' W 118°12'3 3.2
2015-Mar-27 13:33N 33°45' W 118°16'2 2.3
2015-Mar-27 12:33N 33°43' W 118°16'1 1.3
2015-Mar-27 11:33N 33°43' W 118°15'1 1.3
2015-Mar-27 10:33N 33°44' W 118°16'0 0.0
2015-Mar-27 09:33N 33°44' W 118°16'0 0.0
2015-Mar-27 08:33N 33°44' W 118°16'0 0.0
2015-Mar-27 07:33N 33°44' W 118°16'0 0.0
2015-Mar-27 06:20N 33°44' W 118°16'0 0.3
2015-Mar-27 05:33N 33°44' W 118°16'0 0.3
2015-Mar-27 04:32N 33°44' W 118°16'0 0.0
2015-Mar-27 03:33N 33°44' W 118°16'2 1.7
2015-Mar-27 02:33N 33°43' W 118°14'3 3.1
2015-Mar-27 01:33N 33°45' W 118°16'0 0.4
2015-Mar-27 00:32N 33°45' W 118°16'1 1.5
2015-Mar-26 23:33N 33°43' W 118°16'0 0.0
2015-Mar-26 22:29N 33°44' W 118°16'2 2.1
2015-Mar-26 21:33N 33°45' W 118°16'0 0.0
2015-Mar-26 20:33N 33°45' W 118°16'3 3.4
2015-Mar-26 19:33N 33°42' W 118°15'0 0.4
2015-Mar-26 18:33N 33°42' W 118°15'4 4.1
2015-Mar-26 17:33N 33°46' W 118°16'2 2.1
2015-Mar-26 16:34N 33°44' W 118°16'0 0.0
2015-Mar-26 15:33N 33°44' W 118°16'1 1.4
2015-Mar-26 14:33N 33°43' W 118°15'1 0.8
2015-Mar-26 13:33N 33°43' W 118°14'3 3.1
2015-Mar-26 12:33N 33°45' W 118°16'0 0.1
2015-Mar-26 11:33N 33°45' W 118°17'0 0.0
2015-Mar-26 10:33N 33°45' W 118°17'0 0.3
2015-Mar-26 09:33N 33°45' W 118°16'1 1.2
2015-Mar-26 08:33N 33°44' W 118°16'0 0.0
2015-Mar-26 07:33N 33°44' W 118°16'0 0.0
2015-Mar-26 06:33N 33°44' W 118°16'0 0.0
2015-Mar-26 05:33N 33°44' W 118°16'1 0.8
2015-Mar-26 04:30N 33°43' W 118°17'1 0.9
2015-Mar-26 03:33N 33°44' W 118°16'0 0.0
2015-Mar-26 02:34N 33°44' W 118°16'2 1.6
2015-Mar-26 01:33N 33°45' W 118°16'2 1.6
2015-Mar-26 00:33N 33°44' W 118°16'0 0.1
2015-Mar-25 23:33N 33°44' W 118°16'2 1.7
2015-Mar-25 22:34N 33°46' W 118°16'3 2.8
2015-Mar-25 21:33N 33°43' W 118°14'3 3.0
2015-Mar-25 20:34N 33°46' W 118°13'1 0.6
2015-Mar-25 19:33N 33°47' W 118°13'4 3.6
2015-Mar-25 18:32N 33°44' W 118°16'0 0.1
2015-Mar-25 16:33N 33°44' W 118°16'0 0.0
2015-Mar-25 15:33N 33°44' W 118°16'0 0.1
2015-Mar-25 14:33N 33°44' W 118°16'0 0.0
2015-Mar-25 13:33N 33°44' W 118°16'2 2.4
2015-Mar-25 12:34N 33°44' W 118°13'2 1.9
2015-Mar-25 11:33N 33°46' W 118°13'1 1.0
2015-Mar-25 10:33N 33°45' W 118°13'0 0.0
2015-Mar-25 09:34N 33°45' W 118°13'1 0.7
2015-Mar-25 08:33N 33°45' W 118°13'3 3.2
2015-Mar-25 07:30N 33°43' W 118°16'1 0.8
2015-Mar-25 06:33N 33°44' W 118°17'1 0.7
2015-Mar-25 05:33N 33°44' W 118°16'0 0.0
2015-Mar-25 04:33N 33°44' W 118°16'0 0.0
2015-Mar-25 03:33N 33°44' W 118°16'0 0.0
2015-Mar-25 02:30N 33°44' W 118°16'2 1.7
2015-Mar-25 01:33N 33°43' W 118°14'2 1.4
2015-Mar-25 00:24N 33°44' W 118°16'2 1.8
2015-Mar-24 23:28N 33°46' W 118°16'3 3.0
2015-Mar-24 22:30N 33°43' W 118°13'0 0.0
2015-Mar-24 21:09N 33°43' W 118°13'3 3.6
2015-Mar-24 20:22N 33°45' W 118°16'0 0.2
2015-Mar-24 19:33N 33°45' W 118°16'1 0.3
2015-Mar-24 15:08N 33°44' W 118°16'2 0.7
2015-Mar-24 12:25N 33°45' W 118°14'0 0.1
2015-Mar-24 11:33N 33°45' W 118°14'1 0.9
2015-Mar-24 10:33N 33°44' W 118°13'2 0.3
2015-Mar-24 02:28N 33°44' W 118°16'2 2.6
2015-Mar-24 01:30N 33°44' W 118°13'0 0.4
2015-Mar-24 00:33N 33°44' W 118°12'3 1.6
2015-Mar-23 22:33N 33°45' W 118°16'3 1.4
2015-Mar-23 20:33N 33°45' W 118°12'0 0.1
2015-Mar-23 19:33N 33°45' W 118°12'0 0.0
2015-Mar-23 18:32N 33°45' W 118°12'0 0.0
2015-Mar-23 17:32N 33°45' W 118°12'3 2.5
2015-Mar-23 16:24N 33°44' W 118°16'0 0.1
2015-Mar-23 15:14N 33°44' W 118°16'2 1.3
2015-Mar-23 13:24N 33°45' W 118°13'2 1.8
2015-Mar-23 12:33N 33°46' W 118°13'4 3.5
2015-Mar-23 11:33N 33°43' W 118°11'2 2.5
2015-Mar-23 10:33N 33°45' W 118°13'0 0.1
2015-Mar-23 09:11N 33°45' W 118°13'0 0.0
2015-Mar-23 08:33N 33°45' W 118°13'3 0.4
2015-Mar-23 01:33N 33°44' W 118°16'1 1.0
2015-Mar-23 00:29N 33°45' W 118°17'1 1.4
2015-Mar-22 23:34N 33°46' W 118°16'2 1.0
2015-Mar-22 21:32N 33°44' W 118°16'0 0.1
2015-Mar-22 20:28N 33°44' W 118°16'0 0.3
2015-Mar-22 19:23N 33°44' W 118°16'2 2.5
2015-Mar-22 18:34N 33°46' W 118°16'3 1.9
2015-Mar-22 17:13N 33°45' W 118°13'2 2.9
2015-Mar-22 16:31N 33°47' W 118°13'0 0.0
2015-Mar-22 15:32N 33°47' W 118°13'0 0.0
2015-Mar-22 14:22N 33°47' W 118°13'0 0.0
2015-Mar-22 12:13N 33°47' W 118°13'0 0.0
2015-Mar-22 11:27N 33°47' W 118°13'0 0.0
2015-Mar-22 10:32N 33°47' W 118°13'0 0.0
2015-Mar-22 09:33N 33°47' W 118°13'0 0.0
2015-Mar-22 08:31N 33°47' W 118°13'0 0.0
2015-Mar-22 07:33N 33°47' W 118°13'0 0.0
2015-Mar-22 06:33N 33°47' W 118°13'0 0.0
2015-Mar-22 05:31N 33°47' W 118°13'3 0.3
2015-Mar-21 19:07N 33°45' W 118°16'0 0.5
2015-Mar-21 18:13N 33°45' W 118°17'0 0.0
2015-Mar-21 17:30N 33°45' W 118°17'1 0.3
2015-Mar-21 13:06N 33°44' W 118°16'3 2.9
2015-Mar-21 12:10N 33°45' W 118°13'1 1.7
2015-Mar-21 11:30N 33°46' W 118°13'1 0.8
2015-Mar-21 10:17N 33°45' W 118°13'1 1.0
2015-Mar-21 09:31N 33°44' W 118°12'2 2.3
2015-Mar-21 08:31N 33°46' W 118°14'1 0.8
2015-Mar-21 07:32N 33°46' W 118°13'2 0.8
2015-Mar-21 05:33N 33°44' W 118°13'1 1.1
2015-Mar-21 04:26N 33°43' W 118°14'2 0.9
2015-Mar-21 02:33N 33°44' W 118°16'  
Track history (hours):
 
Tides and Currents Weather Stations Pressure Air Temp Water Temp Dewpoint Dewpoint Depression Visibility Wind Speed Wind Dir Waves Ship Positions

Tim Quigg

Owner: Harley Marine Services, Inc, Seattle, WA. More information available from US FCC via Universal Licensing System and Coast Guard Vessel Documentation Center.

Last reported at 2015-Mar-31 01:34 UTC. Time now 2015-Mar-31 02:05 UTC.
Position N 33°46' W 118°17'.

; draft 7.5 m.

Type: Tug. MMSI: 366926740.

Date/timePositionNaut miles runAvg speedWind from/ knotsBaromVisibWave heightAir tempDewpointWater temp
2015-Mar-31 01:34N 33°46' W 118°17'2 1.7
2015-Mar-31 00:34N 33°44' W 118°17'4 4.0
2015-Mar-30 23:33N 33°47' W 118°13'1 0.6
2015-Mar-30 22:33N 33°46' W 118°13'0 0.0
2015-Mar-30 21:33N 33°46' W 118°13'3 2.8
2015-Mar-30 20:33N 33°44' W 118°12'2 1.6
2015-Mar-30 19:33N 33°45' W 118°11'0 0.0
2015-Mar-30 18:33N 33°45' W 118°11'4 4.0
2015-Mar-30 17:34N 33°44' W 118°16'1 1.2
2015-Mar-30 16:33N 33°43' W 118°15'4 3.6
2015-Mar-30 15:33N 33°44' W 118°11'2 2.3
2015-Mar-30 14:33N 33°45' W 118°13'1 0.7
2015-Mar-30 13:33N 33°45' W 118°14'3 3.0
2015-Mar-30 12:31N 33°44' W 118°11'4 4.1
2015-Mar-30 11:33N 33°44' W 118°16'0 0.0
2015-Mar-30 10:34N 33°44' W 118°16'0 0.0
2015-Mar-30 09:30N 33°44' W 118°16'0 0.0
2015-Mar-30 08:33N 33°44' W 118°16'3 3.4
2015-Mar-30 07:34N 33°46' W 118°13'0 0.1
2015-Mar-30 06:33N 33°46' W 118°13'4 4.0
2015-Mar-30 05:34N 33°43' W 118°15'0 0.3
2015-Mar-30 04:33N 33°43' W 118°15'1 1.2
2015-Mar-30 03:33N 33°44' W 118°16'1 0.6
2015-Mar-30 02:33N 33°44' W 118°15'2 2.2
2015-Mar-30 01:34N 33°44' W 118°12'3 2.7
2015-Mar-30 00:33N 33°44' W 118°16'0 0.0
2015-Mar-29 23:33N 33°44' W 118°16'0 0.0
2015-Mar-29 22:33N 33°44' W 118°16'0 0.0
2015-Mar-29 21:33N 33°44' W 118°16'1 1.0
2015-Mar-29 20:34N 33°45' W 118°16'1 1.4
2015-Mar-29 19:33N 33°46' W 118°15'2 2.0
2015-Mar-29 18:33N 33°44' W 118°16'0 0.5
2015-Mar-29 17:33N 33°44' W 118°16'1 0.5
2015-Mar-29 16:33N 33°44' W 118°16'1 0.7
2015-Mar-29 15:33N 33°44' W 118°17'3 3.2
2015-Mar-29 14:33N 33°46' W 118°13'2 1.9
2015-Mar-29 13:33N 33°44' W 118°11'1 0.6
2015-Mar-29 12:09N 33°44' W 118°11'0 0.6
2015-Mar-29 11:33N 33°44' W 118°11'0 0.4
2015-Mar-29 10:34N 33°44' W 118°11'4 3.9
2015-Mar-29 09:33N 33°44' W 118°16'0 0.4
2015-Mar-29 08:33N 33°43' W 118°16'2 2.2
2015-Mar-29 07:33N 33°45' W 118°17'1 0.6
2015-Mar-29 06:34N 33°45' W 118°16'3 2.6
2015-Mar-29 05:31N 33°44' W 118°13'2 2.1
2015-Mar-29 04:33N 33°44' W 118°16'1 0.8
2015-Mar-29 03:33N 33°43' W 118°16'4 3.3
2015-Mar-29 02:30N 33°45' W 118°12'0 0.0
2015-Mar-29 01:33N 33°45' W 118°12'0 0.0
2015-Mar-29 00:33N 33°45' W 118°12'2 1.7
2015-Mar-28 23:33N 33°44' W 118°11'1 1.0
2015-Mar-28 22:33N 33°44' W 118°12'1 1.4
2015-Mar-28 21:33N 33°45' W 118°11'5 4.6
2015-Mar-28 20:33N 33°44' W 118°16'2 2.4
2015-Mar-28 19:33N 33°46' W 118°16'1 1.4
2015-Mar-28 18:34N 33°45' W 118°17'1 1.0
2015-Mar-28 17:33N 33°45' W 118°16'2 2.2
2015-Mar-28 16:33N 33°43' W 118°16'0 0.2
2015-Mar-28 15:33N 33°43' W 118°16'2 1.7
2015-Mar-28 14:33N 33°45' W 118°16'3 2.7
2015-Mar-28 13:33N 33°43' W 118°14'2 2.1
2015-Mar-28 12:33N 33°45' W 118°14'1 0.9
2015-Mar-28 11:20N 33°46' W 118°13'0 0.0
2015-Mar-28 10:33N 33°46' W 118°13'0 0.4
2015-Mar-28 09:33N 33°46' W 118°13'1 1.4
2015-Mar-28 08:33N 33°46' W 118°15'0 0.0
2015-Mar-28 07:34N 33°46' W 118°15'3 3.0
2015-Mar-28 06:33N 33°43' W 118°15'0 0.4
2015-Mar-28 05:33N 33°43' W 118°15'1 1.2
2015-Mar-28 04:33N 33°44' W 118°16'0 0.0
2015-Mar-28 03:33N 33°44' W 118°16'0 0.0
2015-Mar-28 02:33N 33°44' W 118°16'1 1.0
2015-Mar-28 01:33N 33°45' W 118°17'4 3.6
2015-Mar-28 00:33N 33°46' W 118°13'2 2.0
2015-Mar-27 23:33N 33°45' W 118°13'1 0.9
2015-Mar-27 22:33N 33°44' W 118°12'1 1.1
2015-Mar-27 21:33N 33°45' W 118°13'1 1.4
2015-Mar-27 20:33N 33°46' W 118°13'3 3.2
2015-Mar-27 19:33N 33°44' W 118°16'0 0.0
2015-Mar-27 18:33N 33°44' W 118°16'0 0.0
2015-Mar-27 17:34N 33°44' W 118°16'0 0.0
2015-Mar-27 16:33N 33°44' W 118°16'2 1.6
2015-Mar-27 15:33N 33°43' W 118°14'1 1.5
2015-Mar-27 14:33N 33°44' W 118°12'3 3.2
2015-Mar-27 13:33N 33°45' W 118°16'2 2.3
2015-Mar-27 12:33N 33°43' W 118°16'1 1.3
2015-Mar-27 11:33N 33°43' W 118°15'1 1.3
2015-Mar-27 10:33N 33°44' W 118°16'0 0.0
2015-Mar-27 09:33N 33°44' W 118°16'0 0.0
2015-Mar-27 08:33N 33°44' W 118°16'0 0.0
2015-Mar-27 07:33N 33°44' W 118°16'0 0.0
2015-Mar-27 06:20N 33°44' W 118°16'0 0.3
2015-Mar-27 05:33N 33°44' W 118°16'0 0.3
2015-Mar-27 04:32N 33°44' W 118°16'0 0.0
2015-Mar-27 03:33N 33°44' W 118°16'2 1.7
2015-Mar-27 02:33N 33°43' W 118°14'3 3.1
2015-Mar-27 01:33N 33°45' W 118°16'0 0.4
2015-Mar-27 00:32N 33°45' W 118°16'1 1.5
2015-Mar-26 23:33N 33°43' W 118°16'0 0.0
2015-Mar-26 22:29N 33°44' W 118°16'2 2.1
2015-Mar-26 21:33N 33°45' W 118°16'0 0.0
2015-Mar-26 20:33N 33°45' W 118°16'3 3.4
2015-Mar-26 19:33N 33°42' W 118°15'0 0.4
2015-Mar-26 18:33N 33°42' W 118°15'4 4.1
2015-Mar-26 17:33N 33°46' W 118°16'2 2.1
2015-Mar-26 16:34N 33°44' W 118°16'0 0.0
2015-Mar-26 15:33N 33°44' W 118°16'1 1.4
2015-Mar-26 14:33N 33°43' W 118°15'1 0.8
2015-Mar-26 13:33N 33°43' W 118°14'3 3.1
2015-Mar-26 12:33N 33°45' W 118°16'0 0.1
2015-Mar-26 11:33N 33°45' W 118°17'0 0.0
2015-Mar-26 10:33N 33°45' W 118°17'0 0.3
2015-Mar-26 09:33N 33°45' W 118°16'1 1.2
2015-Mar-26 08:33N 33°44' W 118°16'0 0.0
2015-Mar-26 07:33N 33°44' W 118°16'0 0.0
2015-Mar-26 06:33N 33°44' W 118°16'0 0.0
2015-Mar-26 05:33N 33°44' W 118°16'1 0.8
2015-Mar-26 04:30N 33°43' W 118°17'1 0.9
2015-Mar-26 03:33N 33°44' W 118°16'0 0.0
2015-Mar-26 02:34N 33°44' W 118°16'2 1.6
2015-Mar-26 01:33N 33°45' W 118°16'2 1.6
2015-Mar-26 00:33N 33°44' W 118°16'0 0.1
2015-Mar-25 23:33N 33°44' W 118°16'2 1.7
2015-Mar-25 22:34N 33°46' W 118°16'3 2.8
2015-Mar-25 21:33N 33°43' W 118°14'3 3.0
2015-Mar-25 20:34N 33°46' W 118°13'1 0.6
2015-Mar-25 19:33N 33°47' W 118°13'4 3.6
2015-Mar-25 18:32N 33°44' W 118°16'0 0.1
2015-Mar-25 16:33N 33°44' W 118°16'0 0.0
2015-Mar-25 15:33N 33°44' W 118°16'0 0.1
2015-Mar-25 14:33N 33°44' W 118°16'0 0.0
2015-Mar-25 13:33N 33°44' W 118°16'2 2.4
2015-Mar-25 12:34N 33°44' W 118°13'2 1.9
2015-Mar-25 11:33N 33°46' W 118°13'1 1.0
2015-Mar-25 10:33N 33°45' W 118°13'0 0.0
2015-Mar-25 09:34N 33°45' W 118°13'1 0.7
2015-Mar-25 08:33N 33°45' W 118°13'3 3.2
2015-Mar-25 07:30N 33°43' W 118°16'1 0.8
2015-Mar-25 06:33N 33°44' W 118°17'1 0.7
2015-Mar-25 05:33N 33°44' W 118°16'0 0.0
2015-Mar-25 04:33N 33°44' W 118°16'0 0.0
2015-Mar-25 03:33N 33°44' W 118°16'0 0.0
2015-Mar-25 02:30N 33°44' W 118°16'2 1.7
2015-Mar-25 01:33N 33°43' W 118°14'2 1.4
2015-Mar-25 00:24N 33°44' W 118°16'2 1.8
2015-Mar-24 23:28N 33°46' W 118°16'3 3.0
2015-Mar-24 22:30N 33°43' W 118°13'0 0.0
2015-Mar-24 21:09N 33°43' W 118°13'3 3.6
2015-Mar-24 20:22N 33°45' W 118°16'0 0.2
2015-Mar-24 19:33N 33°45' W 118°16'1 0.3
2015-Mar-24 15:08N 33°44' W 118°16'2 0.7
2015-Mar-24 12:25N 33°45' W 118°14'0 0.1
2015-Mar-24 11:33N 33°45' W 118°14'1 0.9
2015-Mar-24 10:33N 33°44' W 118°13'2 0.3
2015-Mar-24 02:28N 33°44' W 118°16'2 2.6
2015-Mar-24 01:30N 33°44' W 118°13'0 0.4
2015-Mar-24 00:33N 33°44' W 118°12'3 1.6
2015-Mar-23 22:33N 33°45' W 118°16'3 1.4
2015-Mar-23 20:33N 33°45' W 118°12'0 0.1
2015-Mar-23 19:33N 33°45' W 118°12'0 0.0
2015-Mar-23 18:32N 33°45' W 118°12'0 0.0
2015-Mar-23 17:32N 33°45' W 118°12'3 2.5
2015-Mar-23 16:24N 33°44' W 118°16'0 0.1
2015-Mar-23 15:14N 33°44' W 118°16'2 1.3
2015-Mar-23 13:24N 33°45' W 118°13'2 1.8
2015-Mar-23 12:33N 33°46' W 118°13'4 3.5
2015-Mar-23 11:33N 33°43' W 118°11'2 2.5
2015-Mar-23 10:33N 33°45' W 118°13'0 0.1
2015-Mar-23 09:11N 33°45' W 118°13'0 0.0
2015-Mar-23 08:33N 33°45' W 118°13'3 0.4
2015-Mar-23 01:33N 33°44' W 118°16'1 1.0
2015-Mar-23 00:29N 33°45' W 118°17'1 1.4
2015-Mar-22 23:34N 33°46' W 118°16'2 1.0
2015-Mar-22 21:32N 33°44' W 118°16'0 0.1
2015-Mar-22 20:28N 33°44' W 118°16'0 0.3
2015-Mar-22 19:23N 33°44' W 118°16'2 2.5
2015-Mar-22 18:34N 33°46' W 118°16'3 1.9
2015-Mar-22 17:13N 33°45' W 118°13'2 2.9
2015-Mar-22 16:31N 33°47' W 118°13'0 0.0
2015-Mar-22 15:32N 33°47' W 118°13'0 0.0
2015-Mar-22 14:22N 33°47' W 118°13'0 0.0
2015-Mar-22 12:13N 33°47' W 118°13'0 0.0
2015-Mar-22 11:27N 33°47' W 118°13'0 0.0
2015-Mar-22 10:32N 33°47' W 118°13'0 0.0
2015-Mar-22 09:33N 33°47' W 118°13'0 0.0
2015-Mar-22 08:31N 33°47' W 118°13'0 0.0
2015-Mar-22 07:33N 33°47' W 118°13'0 0.0
2015-Mar-22 06:33N 33°47' W 118°13'0 0.0
2015-Mar-22 05:31N 33°47' W 118°13'3 0.3
2015-Mar-21 19:07N 33°45' W 118°16'0 0.5
2015-Mar-21 18:13N 33°45' W 118°17'0 0.0
2015-Mar-21 17:30N 33°45' W 118°17'1 0.3
2015-Mar-21 13:06N 33°44' W 118°16'3 2.9
2015-Mar-21 12:10N 33°45' W 118°13'1 1.7
2015-Mar-21 11:30N 33°46' W 118°13'1 0.8
2015-Mar-21 10:17N 33°45' W 118°13'1 1.0
2015-Mar-21 09:31N 33°44' W 118°12'2 2.3
2015-Mar-21 08:31N 33°46' W 118°14'1 0.8
2015-Mar-21 07:32N 33°46' W 118°13'2 0.8
2015-Mar-21 05:33N 33°44' W 118°13'1 1.1
2015-Mar-21 04:26N 33°43' W 118°14'2 0.9
2015-Mar-21 02:33N 33°44' W 118°16'  

Dump ship's entire track history